Time;durP1;ratioP1;P1;durP2;ratioP2;P2;SDS_P1;SDS_P2;PMS_P1;PMS_P2;Temp;Humidity;BMP_temperature;BMP_pressure;BME280_temperature;BME280_humidity;BME280_pressure;Samples;Min_cycle;Max_cycle;Signal;HPM_P1;HPM_P2
2024/03/29 00:00:25;;;;;;;6.43;3.93;;;2.20;93.30;;;;;;5045221;28;20505;-61
2024/03/29 00:02:50;;;;;;;7.17;5.30;;;2.20;93.40;;;;;;5042716;28;20202;-61
2024/03/29 00:05:16;;;;;;;6.73;4.73;;;2.20;94.00;;;;;;5046631;28;20174;-61
2024/03/29 00:07:42;;;;;;;9.77;4.77;;;2.10;93.90;;;;;;5043968;28;20194;-61
2024/03/29 00:10:07;;;;;;;8.93;4.33;;;2.20;94.20;;;;;;5043282;28;20228;-60
2024/03/29 00:12:33;;;;;;;6.43;4.13;;;2.10;93.70;;;;;;5042899;28;20167;-62
2024/03/29 00:14:59;;;;;;;9.50;4.37;;;2.10;93.50;;;;;;5040778;28;20943;-60
2024/03/29 00:17:24;;;;;;;6.30;4.00;;;2.00;93.80;;;;;;5037565;28;20253;-62
2024/03/29 00:19:50;;;;;;;6.70;3.70;;;2.00;94.00;;;;;;5032021;28;20730;-61
2024/03/29 00:22:15;;;;;;;8.93;4.43;;;2.00;94.90;;;;;;5050006;28;20197;-61
2024/03/29 00:24:41;;;;;;;5.70;4.23;;;2.00;95.20;;;;;;5046134;28;20700;-61
2024/03/29 00:27:06;;;;;;;7.87;3.77;;;2.00;95.70;;;;;;5042929;28;20183;-61
2024/03/29 00:29:32;;;;;;;12.37;3.97;;;2.00;95.80;;;;;;5040982;28;20202;-60
2024/03/29 00:31:58;;;;;;;7.37;4.40;;;2.00;95.60;;;;;;5045543;28;20182;-61
2024/03/29 00:34:23;;;;;;;8.63;4.53;;;1.90;96.40;;;;;;5041934;28;20261;-61
2024/03/29 00:36:49;;;;;;;5.10;3.83;;;1.90;96.10;;;;;;5042027;28;20190;-61
2024/03/29 00:39:14;;;;;;;5.57;3.67;;;1.90;96.30;;;;;;5045629;28;20194;-61
2024/03/29 00:41:40;;;;;;;6.90;3.40;;;1.90;96.40;;;;;;5040640;28;20708;-61
2024/03/29 00:44:06;;;;;;;6.37;4.20;;;1.90;96.70;;;;;;5040109;28;20232;-62
2024/03/29 00:46:31;;;;;;;6.83;4.20;;;1.90;96.60;;;;;;5021877;28;20207;-62
2024/03/29 00:48:57;;;;;;;6.03;3.43;;;1.80;96.70;;;;;;5044968;28;20330;-61
2024/03/29 00:51:22;;;;;;;4.93;3.53;;;1.80;96.60;;;;;;5024366;28;20179;-61
2024/03/29 00:53:48;;;;;;;10.07;3.80;;;1.80;96.90;;;;;;5043422;28;20269;-61
2024/03/29 00:56:15;;;;;;;5.43;4.10;;;1.80;97.50;;;;;;5041010;28;20172;-59
2024/03/29 00:58:41;;;;;;;5.67;3.27;;;1.80;97.30;;;;;;5041527;28;20194;-61
2024/03/29 01:01:06;;;;;;;6.17;3.70;;;1.80;97.00;;;;;;5044435;28;20958;-61
2024/03/29 01:03:32;;;;;;;6.03;3.20;;;1.80;97.70;;;;;;5041617;28;20209;-60
2024/03/29 01:05:57;;;;;;;5.40;3.87;;;1.80;98.40;;;;;;5040454;28;20831;-60
2024/03/29 01:08:23;;;;;;;5.37;3.33;;;1.80;98.70;;;;;;5038927;28;20675;-60
2024/03/29 01:10:49;;;;;;;6.30;4.33;;;1.80;99.40;;;;;;5023436;28;20176;-61
2024/03/29 01:13:15;;;;;;;9.40;4.20;;;1.80;99.90;;;;;;5040959;28;20220;-59
2024/03/29 01:15:40;;;;;;;5.87;3.57;;;1.80;99.90;;;;;;5025834;28;20448;-61
2024/03/29 01:18:06;;;;;;;7.17;3.83;;;1.80;99.90;;;;;;5025181;28;20739;-62
2024/03/29 01:20:32;;;;;;;4.90;3.67;;;1.80;99.90;;;;;;5037915;28;20757;-60
2024/03/29 01:22:57;;;;;;;9.80;4.43;;;1.90;99.90;;;;;;5043459;28;20193;-61
2024/03/29 01:25:24;;;;;;;9.87;3.10;;;1.90;99.50;;;;;;5038924;28;20182;-58
2024/03/29 01:27:49;;;;;;;6.73;3.30;;;1.90;99.10;;;;;;5039247;28;20173;-59
2024/03/29 01:30:15;;;;;;;6.50;3.27;;;1.80;98.40;;;;;;5040842;28;20421;-61
2024/03/29 01:32:41;;;;;;;9.23;3.77;;;1.80;98.60;;;;;;5043125;28;20251;-61
2024/03/29 01:35:07;;;;;;;4.83;3.00;;;1.80;98.80;;;;;;5039853;28;20633;-62
2024/03/29 01:37:32;;;;;;;3.80;2.97;;;1.80;99.00;;;;;;5039622;28;20198;-61
2024/03/29 01:39:58;;;;;;;9.70;4.20;;;1.70;98.50;;;;;;5041673;28;20674;-61
2024/03/29 01:42:23;;;;;;;7.27;3.70;;;1.70;98.50;;;;;;5040167;28;20171;-57
2024/03/29 01:44:49;;;;;;;5.83;3.83;;;1.70;98.70;;;;;;5041857;28;20604;-62
2024/03/29 01:47:17;;;;;;;7.17;4.27;;;1.70;99.20;;;;;;5041130;28;20685;-61
2024/03/29 01:49:45;;;;;;;9.07;4.60;;;1.60;99.60;;;;;;5042539;28;20198;-62
2024/03/29 01:52:11;;;;;;;6.33;4.20;;;1.60;99.90;;;;;;5024473;28;20417;-62
2024/03/29 01:54:37;;;;;;;5.87;3.73;;;1.60;99.90;;;;;;5043242;28;20433;-61
2024/03/29 01:57:04;;;;;;;5.33;3.80;;;1.60;99.70;;;;;;5040117;28;20435;-61
2024/03/29 01:59:30;;;;;;;4.70;3.00;;;1.60;99.90;;;;;;5039629;28;20360;-61
2024/03/29 02:01:56;;;;;;;8.43;3.20;;;1.60;99.90;;;;;;5041512;28;20440;-62
2024/03/29 02:04:22;;;;;;;6.10;3.90;;;1.60;99.90;;;;;;5037363;28;20469;-61
2024/03/29 02:06:47;;;;;;;5.60;3.47;;;1.50;99.90;;;;;;5044958;28;20421;-62
2024/03/29 02:09:13;;;;;;;6.40;3.60;;;1.50;99.90;;;;;;5044001;28;21698;-61
2024/03/29 02:11:39;;;;;;;6.90;3.97;;;1.50;99.90;;;;;;5044018;28;20646;-61
2024/03/29 02:14:06;;;;;;;8.03;4.00;;;1.50;99.90;;;;;;5037987;28;20202;-61
2024/03/29 02:16:32;;;;;;;5.30;3.53;;;1.50;99.90;;;;;;5044478;28;20847;-61
2024/03/29 02:18:57;;;;;;;5.63;3.40;;;1.50;99.90;;;;;;5046437;28;20522;-61
2024/03/29 02:21:23;;;;;;;3.40;3.10;;;1.50;99.90;;;;;;5046699;28;20641;-61
2024/03/29 02:23:58;;;;;;;5.83;3.27;;;1.50;99.90;;;;;;5049859;28;20285;-60
2024/03/29 02:26:26;;;;;;;4.17;3.23;;;1.40;99.90;;;;;;5047899;28;20286;-60
2024/03/29 02:28:52;;;;;;;6.80;3.10;;;1.40;99.90;;;;;;5047225;28;20478;-61
2024/03/29 02:31:17;;;;;;;4.20;3.10;;;1.40;99.90;;;;;;5046092;28;20468;-61
2024/03/29 02:33:43;;;;;;;3.03;2.53;;;1.40;99.90;;;;;;5043983;28;20764;-62
2024/03/29 02:36:09;;;;;;;5.40;3.30;;;1.40;99.90;;;;;;5044859;28;20179;-60
2024/03/29 02:38:34;;;;;;;4.90;2.73;;;1.40;99.90;;;;;;5042422;28;20195;-61
2024/03/29 02:41:00;;;;;;;4.30;3.20;;;1.40;99.90;;;;;;5043669;28;20175;-60
2024/03/29 02:43:25;;;;;;;9.20;3.50;;;1.40;99.90;;;;;;5045785;28;20204;-61
2024/03/29 02:45:51;;;;;;;5.10;3.50;;;1.40;99.90;;;;;;5046210;28;20558;-60
2024/03/29 02:48:17;;;;;;;8.30;4.03;;;1.40;99.90;;;;;;5048043;28;20225;-62
2024/03/29 02:50:42;;;;;;;5.70;3.60;;;1.40;99.90;;;;;;5043278;28;20225;-61
2024/03/29 02:53:08;;;;;;;7.07;3.20;;;1.40;99.90;;;;;;5043781;28;20210;-62
2024/03/29 02:55:33;;;;;;;5.90;3.60;;;1.30;99.90;;;;;;5043581;28;20255;-60
2024/03/29 02:57:59;;;;;;;4.93;3.10;;;1.30;99.90;;;;;;5042586;28;20182;-61
2024/03/29 03:00:24;;;;;;;5.37;3.70;;;1.30;99.90;;;;;;5043301;28;20985;-61
2024/03/29 03:02:50;;;;;;;7.97;3.60;;;1.30;99.90;;;;;;5047394;28;20182;-61
2024/03/29 03:05:16;;;;;;;4.63;3.20;;;1.30;99.90;;;;;;5045238;28;20187;-61
2024/03/29 03:13:10;;;;;;;11.80;4.23;;;1.30;99.90;;;;;;5048006;28;20439;-62
2024/03/29 03:15:35;;;;;;;5.13;3.67;;;1.40;99.90;;;;;;5043086;28;20511;-60
2024/03/29 03:18:01;;;;;;;6.70;4.40;;;1.40;99.90;;;;;;5042976;28;20202;-61
2024/03/29 03:20:30;;;;;;;5.80;4.07;;;1.40;99.90;;;;;;5046183;28;20242;-61
2024/03/29 03:22:57;;;;;;;8.83;4.77;;;1.40;99.90;;;;;;5022502;28;20570;-62
2024/03/29 03:25:23;;;;;;;6.90;4.30;;;1.40;99.90;;;;;;5040209;28;20428;-61
2024/03/29 03:27:48;;;;;;;11.33;4.00;;;1.40;99.90;;;;;;5044307;28;20958;-61
2024/03/29 03:30:15;;;;;;;8.40;5.03;;;1.40;99.90;;;;;;5038706;28;20491;-62
2024/03/29 03:32:40;;;;;;;7.40;3.60;;;1.40;99.90;;;;;;5040707;28;21070;-61
2024/03/29 03:35:06;;;;;;;5.33;3.63;;;1.40;99.90;;;;;;5020199;28;20525;-62
2024/03/29 03:37:32;;;;;;;6.87;3.30;;;1.40;99.90;;;;;;5045982;28;20383;-61
2024/03/29 03:39:57;;;;;;;4.13;3.10;;;1.40;99.90;;;;;;5047013;28;20442;-61
2024/03/29 03:42:23;;;;;;;6.07;3.80;;;1.40;99.90;;;;;;5045350;28;20270;-60
2024/03/29 03:44:48;;;;;;;3.63;2.93;;;1.40;99.90;;;;;;5039714;28;20800;-60
2024/03/29 03:47:14;;;;;;;9.23;3.03;;;1.40;99.90;;;;;;5040136;28;20254;-61
2024/03/29 03:49:39;;;;;;;3.37;2.80;;;1.40;99.90;;;;;;5045454;28;20206;-61
2024/03/29 03:52:05;;;;;;;7.33;3.07;;;1.50;99.90;;;;;;5044392;28;20649;-62
2024/03/29 03:54:31;;;;;;;5.10;3.20;;;1.50;99.90;;;;;;5046832;28;20203;-61
2024/03/29 03:56:56;;;;;;;5.80;3.10;;;1.50;99.90;;;;;;5042503;28;20190;-61
2024/03/29 03:59:22;;;;;;;6.97;3.40;;;1.50;99.90;;;;;;5041640;28;20720;-60
2024/03/29 04:01:51;;;;;;;5.07;3.03;;;1.50;99.90;;;;;;5039250;28;20180;-60
2024/03/29 04:04:17;;;;;;;5.90;3.47;;;1.50;99.90;;;;;;5043501;28;20217;-60
2024/03/29 04:06:42;;;;;;;6.80;3.43;;;1.50;99.90;;;;;;5042598;28;20506;-61
2024/03/29 04:09:08;;;;;;;3.97;2.83;;;1.50;99.90;;;;;;5022694;28;20447;-62
2024/03/29 04:11:34;;;;;;;5.87;3.67;;;1.50;99.90;;;;;;5043563;28;20206;-59
2024/03/29 04:13:59;;;;;;;7.53;4.00;;;1.50;99.90;;;;;;5040009;28;20189;-60
2024/03/29 04:16:25;;;;;;;7.13;4.20;;;1.50;99.90;;;;;;5042223;28;20214;-62
2024/03/29 04:18:51;;;;;;;15.10;4.33;;;1.60;99.90;;;;;;5044534;28;20202;-61
2024/03/29 04:21:16;;;;;;;4.70;3.57;;;1.60;99.90;;;;;;5044791;28;20590;-61
2024/03/29 04:23:42;;;;;;;8.17;3.50;;;1.60;99.90;;;;;;5028420;28;20210;-61
2024/03/29 04:26:07;;;;;;;7.40;4.20;;;1.60;99.90;;;;;;5042984;28;20172;-62
2024/03/29 04:28:33;;;;;;;10.80;3.70;;;1.60;99.90;;;;;;5041626;28;20622;-60
2024/03/29 04:31:00;;;;;;;8.03;4.47;;;1.60;99.90;;;;;;5042860;28;20168;-61
2024/03/29 04:33:26;;;;;;;12.67;4.30;;;1.60;99.90;;;;;;5043952;28;20175;-62
2024/03/29 04:36:01;;;;;;;12.63;4.10;;;1.60;99.90;;;;;;5040883;28;20464;-61
2024/03/29 04:38:27;;;;;;;7.70;4.03;;;1.60;99.90;;;;;;5048413;28;20468;-61
2024/03/29 04:40:54;;;;;;;6.83;4.00;;;1.60;99.90;;;;;;5045327;28;20436;-61
2024/03/29 04:43:23;;;;;;;7.27;4.27;;;1.60;99.90;;;;;;5044324;28;20449;-62
2024/03/29 04:45:48;;;;;;;6.67;3.50;;;1.60;99.90;;;;;;5044153;28;20416;-61
2024/03/29 04:48:14;;;;;;;5.87;3.50;;;1.60;99.90;;;;;;5045269;28;20807;-61
2024/03/29 04:50:40;;;;;;;10.00;3.70;;;1.60;99.90;;;;;;5043803;28;20178;-61
2024/03/29 04:53:09;;;;;;;4.43;3.50;;;1.60;99.90;;;;;;5042628;28;20230;-60
2024/03/29 04:55:35;;;;;;;8.13;3.30;;;1.60;99.90;;;;;;5039278;28;20425;-59
2024/03/29 04:58:01;;;;;;;4.30;2.90;;;1.60;99.90;;;;;;5044982;28;20540;-61
2024/03/29 05:00:27;;;;;;;4.23;2.60;;;1.50;99.90;;;;;;5041718;28;20432;-61
2024/03/29 05:02:53;;;;;;;5.00;3.17;;;1.60;99.90;;;;;;5039145;28;20511;-60
2024/03/29 05:05:19;;;;;;;6.10;3.20;;;1.60;99.90;;;;;;5043587;28;20482;-60
2024/03/29 05:07:44;;;;;;;6.27;3.97;;;1.60;99.90;;;;;;5044305;28;20637;-61
2024/03/29 05:10:10;;;;;;;5.77;3.80;;;1.60;99.90;;;;;;5038460;28;20207;-59
2024/03/29 05:12:36;;;;;;;6.20;3.30;;;1.70;99.90;;;;;;5041648;28;20707;-61
2024/03/29 05:15:02;;;;;;;8.27;3.63;;;1.70;99.90;;;;;;5044630;28;20198;-60
2024/03/29 05:17:28;;;;;;;7.93;3.20;;;1.60;99.90;;;;;;5025838;28;20457;-62
2024/03/29 05:19:54;;;;;;;6.23;3.20;;;1.70;99.90;;;;;;5041739;28;20449;-61
2024/03/29 05:22:20;;;;;;;6.50;3.67;;;1.70;99.90;;;;;;5041948;28;20179;-61
2024/03/29 05:24:46;;;;;;;5.00;4.00;;;1.70;99.90;;;;;;5042103;28;20465;-60
2024/03/29 05:27:12;;;;;;;9.43;3.60;;;1.80;99.90;;;;;;5040449;28;20777;-61
2024/03/29 05:29:37;;;;;;;4.63;3.47;;;1.80;99.90;;;;;;5043361;28;20329;-60
2024/03/29 05:32:07;;;;;;;4.10;3.30;;;1.90;99.90;;;;;;5041662;28;20479;-61
2024/03/29 05:34:32;;;;;;;6.40;3.13;;;1.90;99.90;;;;;;5041701;28;20183;-61
2024/03/29 05:36:58;;;;;;;5.87;3.60;;;2.00;99.90;;;;;;5038859;28;20454;-62
2024/03/29 05:39:23;;;;;;;10.27;3.70;;;2.00;99.90;;;;;;5046072;28;20200;-61
2024/03/29 05:41:49;;;;;;;7.13;3.30;;;2.10;99.90;;;;;;5037227;28;20259;-61
2024/03/29 05:44:15;;;;;;;6.13;3.40;;;2.10;99.90;;;;;;5040176;28;20602;-61
2024/03/29 05:46:40;;;;;;;4.50;3.27;;;2.30;99.90;;;;;;5045267;28;20173;-61
2024/03/29 05:49:09;;;;;;;5.77;3.53;;;2.30;99.90;;;;;;5040319;28;20216;-61
2024/03/29 05:51:34;;;;;;;5.13;3.13;;;2.40;99.90;;;;;;5038436;28;20201;-62
2024/03/29 05:54:00;;;;;;;4.03;3.07;;;2.50;99.90;;;;;;5042624;28;20429;-62
2024/03/29 05:56:26;;;;;;;4.00;2.93;;;2.50;99.90;;;;;;5023891;28;20177;-61
2024/03/29 05:58:51;;;;;;;5.77;3.80;;;2.50;99.90;;;;;;5043791;28;20749;-62
2024/03/29 06:01:17;;;;;;;6.30;3.57;;;2.60;99.90;;;;;;5043986;28;20207;-60
2024/03/29 06:03:42;;;;;;;4.23;2.60;;;2.60;99.90;;;;;;5026056;28;20187;-60
2024/03/29 06:06:11;;;;;;;5.37;2.93;;;2.70;99.90;;;;;;5040467;28;20175;-60
2024/03/29 06:08:37;;;;;;;3.20;2.47;;;2.70;99.90;;;;;;5040176;28;20192;-62
2024/03/29 06:11:03;;;;;;;4.40;2.90;;;2.80;99.90;;;;;;5037252;28;20425;-62
2024/03/29 06:18:57;;;;;;;3.37;2.70;;;2.90;99.90;;;;;;5040979;28;20456;-60
2024/03/29 06:21:22;;;;;;;2.87;2.57;;;3.00;99.90;;;;;;5042288;28;20425;-62
2024/03/29 06:23:48;;;;;;;4.77;2.87;;;3.00;99.90;;;;;;5038755;28;20230;-61
2024/03/29 06:26:14;;;;;;;6.33;3.30;;;3.00;99.90;;;;;;5019738;28;20186;-61
2024/03/29 06:28:39;;;;;;;4.90;2.90;;;3.10;99.90;;;;;;5042031;28;20195;-62
2024/03/29 06:31:05;;;;;;;5.20;3.40;;;3.10;99.90;;;;;;5039563;28;20206;-60
2024/03/29 06:33:30;;;;;;;13.57;3.43;;;3.20;99.90;;;;;;5042395;28;20235;-59
2024/03/29 06:35:56;;;;;;;5.30;2.93;;;3.30;99.90;;;;;;5041366;28;20278;-60
2024/03/29 06:38:21;;;;;;;7.20;3.20;;;3.50;99.90;;;;;;5036712;28;20200;-60
2024/03/29 06:40:47;;;;;;;6.27;3.10;;;3.60;99.90;;;;;;5041278;28;20211;-60
2024/03/29 06:43:13;;;;;;;5.70;2.97;;;3.70;99.90;;;;;;5042056;28;20641;-60
2024/03/29 06:45:44;;;;;;;4.07;2.93;;;3.80;99.90;;;;;;5042467;28;20439;-60
2024/03/29 06:48:10;;;;;;;3.53;2.40;;;3.80;99.90;;;;;;5034778;28;20194;-60
2024/03/29 06:50:37;;;;;;;5.10;2.87;;;3.80;99.90;;;;;;5044774;28;20455;-61
2024/03/29 06:53:04;;;;;;;8.93;3.30;;;3.80;99.90;;;;;;5044443;28;20184;-60
2024/03/29 06:55:30;;;;;;;9.53;2.83;;;3.80;99.90;;;;;;5043779;28;20485;-60
2024/03/29 06:57:56;;;;;;;3.07;2.27;;;3.80;99.90;;;;;;5039400;28;20452;-60
2024/03/29 07:00:22;;;;;;;3.57;2.87;;;3.80;99.90;;;;;;5038508;28;20445;-61
2024/03/29 07:02:47;;;;;;;7.20;2.60;;;3.80;99.90;;;;;;5051811;28;20646;-60
2024/03/29 07:05:13;;;;;;;4.83;3.00;;;3.90;99.90;;;;;;5044865;28;20677;-59
2024/03/29 07:07:40;;;;;;;7.50;3.07;;;4.00;99.90;;;;;;5043779;28;20179;-61
2024/03/29 07:10:06;;;;;;;3.77;2.60;;;4.00;99.90;;;;;;5037274;28;20207;-61
2024/03/29 07:12:32;;;;;;;5.87;4.23;;;4.20;99.90;;;;;;5048332;28;20815;-60
2024/03/29 07:14:57;;;;;;;4.77;3.07;;;4.30;99.90;;;;;;5042891;28;20505;-61
2024/03/29 07:17:23;;;;;;;4.07;2.90;;;4.40;99.90;;;;;;5027889;28;20202;-60
2024/03/29 07:19:48;;;;;;;3.23;2.90;;;4.60;99.90;;;;;;5044230;28;20210;-58
2024/03/29 07:22:14;;;;;;;4.90;2.50;;;4.80;99.90;;;;;;5048214;28;20267;-58
2024/03/29 07:24:40;;;;;;;9.37;4.23;;;5.00;99.90;;;;;;5035573;28;20211;-57
2024/03/29 07:27:05;;;;;;;5.90;3.07;;;5.10;99.90;;;;;;5041063;28;20179;-60
2024/03/29 07:29:33;;;;;;;6.93;2.97;;;5.30;99.90;;;;;;5040100;28;20325;-60
2024/03/29 07:32:00;;;;;;;3.30;2.30;;;5.50;99.90;;;;;;5043179;28;20210;-62
2024/03/29 07:34:25;;;;;;;4.10;2.57;;;5.70;98.00;;;;;;5043238;28;20464;-62
2024/03/29 07:36:51;;;;;;;3.27;2.53;;;5.80;96.00;;;;;;5040549;28;20446;-62
2024/03/29 07:39:17;;;;;;;2.90;2.60;;;6.00;97.90;;;;;;5045611;28;20307;-62
2024/03/29 07:41:43;;;;;;;6.13;2.50;;;6.20;94.30;;;;;;5040359;28;20790;-62
2024/03/29 07:44:09;;;;;;;2.60;2.10;;;6.40;92.80;;;;;;5025332;28;20203;-61
2024/03/29 07:46:37;;;;;;;3.20;2.30;;;6.50;91.70;;;;;;5039546;28;21746;-61
2024/03/29 07:49:03;;;;;;;2.30;1.93;;;6.60;88.50;;;;;;5037179;28;20832;-61
2024/03/29 07:51:29;;;;;;;2.40;1.90;;;6.80;88.30;;;;;;5043797;28;20418;-63
2024/03/29 07:53:55;;;;;;;3.07;2.73;;;6.90;87.10;;;;;;5036990;28;20187;-63
2024/03/29 07:56:22;;;;;;;3.33;2.57;;;7.10;86.50;;;;;;5043845;28;20433;-62
2024/03/29 07:58:52;;;;;;;11.40;3.43;;;7.30;85.40;;;;;;5043312;28;20711;-62
2024/03/29 08:01:21;;;;;;;2.73;2.23;;;7.30;81.00;;;;;;5041009;28;20465;-62
2024/03/29 08:03:47;;;;;;;2.80;2.00;;;7.40;80.40;;;;;;5041439;28;20465;-62
2024/03/29 08:06:13;;;;;;;2.40;2.00;;;7.50;78.10;;;;;;5039411;28;23291;-67
2024/03/29 08:08:39;;;;;;;2.80;2.10;;;7.50;76.90;;;;;;5046337;28;20461;-62
2024/03/29 08:11:04;;;;;;;2.90;2.20;;;7.60;76.30;;;;;;5034568;28;20671;-60
2024/03/29 08:13:30;;;;;;;2.67;2.10;;;7.70;75.40;;;;;;5038833;28;20188;-58
2024/03/29 08:16:00;;;;;;;2.70;2.00;;;7.80;75.50;;;;;;5037480;28;20682;-59
2024/03/29 08:18:27;;;;;;;2.57;2.00;;;8.00;74.90;;;;;;5039947;28;20209;-58
2024/03/29 08:20:57;;;;;;;2.50;1.73;;;8.00;74.00;;;;;;5040250;28;20445;-58
2024/03/29 08:23:23;;;;;;;34.33;3.63;;;8.20;73.80;;;;;;5022207;28;20511;-62
2024/03/29 08:25:48;;;;;;;9.70;2.30;;;8.20;72.80;;;;;;5037156;28;20426;-60
2024/03/29 08:28:15;;;;;;;2.40;1.80;;;8.30;72.80;;;;;;5021202;28;20211;-62
2024/03/29 08:30:40;;;;;;;2.57;2.10;;;8.50;73.20;;;;;;5044438;28;20179;-61
2024/03/29 08:33:06;;;;;;;3.33;2.00;;;8.60;73.00;;;;;;5018707;28;20970;-61
2024/03/29 08:35:32;;;;;;;2.47;2.00;;;8.70;71.80;;;;;;5041187;28;20210;-60
2024/03/29 08:37:59;;;;;;;5.43;2.03;;;8.80;71.10;;;;;;5042105;28;20602;-62
2024/03/29 08:40:28;;;;;;;2.13;1.90;;;8.90;70.40;;;;;;5036829;28;20432;-62
2024/03/29 08:42:54;;;;;;;1.77;1.67;;;8.90;68.60;;;;;;5024624;28;20441;-62
2024/03/29 08:45:20;;;;;;;2.43;1.83;;;9.00;68.00;;;;;;5038534;28;20474;-60
2024/03/29 08:47:46;;;;;;;2.63;1.80;;;9.00;67.60;;;;;;5041524;28;20434;-60
2024/03/29 08:50:13;;;;;;;2.90;2.10;;;9.10;68.30;;;;;;5021307;28;20445;-62
2024/03/29 08:52:40;;;;;;;2.07;1.87;;;9.20;68.80;;;;;;5041635;28;20431;-64
2024/03/29 08:55:06;;;;;;;3.63;1.70;;;9.30;67.80;;;;;;5038047;28;20533;-64
2024/03/29 08:57:32;;;;;;;2.03;1.80;;;9.30;68.00;;;;;;5044478;28;20433;-62
2024/03/29 08:59:58;;;;;;;1.40;1.30;;;9.30;67.10;;;;;;5040890;28;21053;-63
2024/03/29 09:02:23;;;;;;;2.33;1.47;;;9.40;66.40;;;;;;5038221;28;20458;-63
2024/03/29 09:04:49;;;;;;;1.40;1.30;;;9.40;65.70;;;;;;5046146;28;20203;-65
2024/03/29 09:07:15;;;;;;;8.03;2.13;;;9.40;65.50;;;;;;5045685;28;20174;-65
2024/03/29 09:09:41;;;;;;;11.87;4.17;;;9.50;65.60;;;;;;5038222;28;20191;-63
2024/03/29 09:12:09;;;;;;;6.13;3.30;;;9.50;65.00;;;;;;5042868;28;20187;-63
2024/03/29 09:14:35;;;;;;;6.90;2.87;;;9.60;64.70;;;;;;5016596;28;20815;-63
2024/03/29 09:17:02;;;;;;;9.50;3.10;;;9.70;64.70;;;;;;5043377;28;20461;-61
2024/03/29 09:19:30;;;;;;;5.20;2.43;;;9.80;64.50;;;;;;5035192;28;20681;-64
2024/03/29 09:21:55;;;;;;;5.80;2.27;;;9.90;63.50;;;;;;5038489;28;20434;-64
2024/03/29 09:24:22;;;;;;;2.40;1.87;;;10.10;61.60;;;;;;5014727;28;20466;-64
2024/03/29 09:26:49;;;;;;;1.87;1.77;;;10.30;61.60;;;;;;5040888;28;20179;-64
2024/03/29 09:29:15;;;;;;;2.07;1.80;;;10.60;62.00;;;;;;5020982;28;20465;-64
2024/03/29 09:31:41;;;;;;;2.30;1.90;;;10.80;62.00;;;;;;5041013;28;20505;-63
2024/03/29 09:34:07;;;;;;;2.63;1.70;;;11.00;62.30;;;;;;5036769;28;20520;-64
2024/03/29 09:36:32;;;;;;;1.60;1.50;;;11.20;62.60;;;;;;5038763;28;20558;-64
2024/03/29 09:38:58;;;;;;;2.27;1.60;;;11.40;62.00;;;;;;5041763;28;20207;-65
2024/03/29 09:41:26;;;;;;;4.07;1.90;;;11.50;61.70;;;;;;5036934;28;20267;-64
2024/03/29 09:43:54;;;;;;;3.47;2.17;;;11.70;61.10;;;;;;5038542;28;20211;-65
2024/03/29 09:46:21;;;;;;;1.80;1.53;;;11.90;60.10;;;;;;5043351;28;20417;-64
2024/03/29 09:48:48;;;;;;;1.57;1.47;;;12.00;58.40;;;;;;5029940;28;20640;-63
2024/03/29 09:51:14;;;;;;;1.63;1.40;;;12.10;57.40;;;;;;5046037;28;20429;-64
2024/03/29 09:53:42;;;;;;;1.63;1.53;;;12.20;56.30;;;;;;5046407;28;20475;-64
2024/03/29 09:56:08;;;;;;;1.33;1.23;;;12.30;56.30;;;;;;5022399;28;20425;-64
2024/03/29 09:58:36;;;;;;;1.37;1.27;;;12.60;55.20;;;;;;5042900;28;21026;-64
2024/03/29 10:01:07;;;;;;;2.33;1.17;;;12.80;54.20;;;;;;5042323;28;20433;-63
2024/03/29 10:03:39;;;;;;;1.60;1.50;;;13.00;54.30;;;;;;5045560;28;20991;-64
2024/03/29 10:06:08;;;;;;;1.73;1.50;;;13.20;54.20;;;;;;5037269;28;20433;-65
2024/03/29 10:08:34;;;;;;;2.10;1.20;;;13.30;53.80;;;;;;5042281;28;20484;-62
2024/03/29 10:11:00;;;;;;;1.47;1.33;;;13.50;54.30;;;;;;5047138;28;20989;-65
2024/03/29 10:13:26;;;;;;;1.53;1.33;;;13.60;54.00;;;;;;5047852;28;20182;-64
2024/03/29 10:15:55;;;;;;;2.30;1.50;;;13.80;53.50;;;;;;5038556;28;20499;-65
2024/03/29 10:18:21;;;;;;;2.30;1.40;;;13.90;53.50;;;;;;5041857;28;20202;-64
2024/03/29 10:20:47;;;;;;;1.70;1.60;;;14.10;54.00;;;;;;5049971;28;20409;-66
2024/03/29 10:23:14;;;;;;;1.70;1.53;;;14.30;53.70;;;;;;5045829;28;20498;-64
2024/03/29 10:25:40;;;;;;;1.90;1.50;;;14.60;54.30;;;;;;5040643;28;20206;-65
2024/03/29 10:28:05;;;;;;;2.63;1.40;;;14.80;53.30;;;;;;5039728;28;20460;-65
2024/03/29 10:30:31;;;;;;;1.90;1.50;;;14.80;52.50;;;;;;5047183;28;20429;-64
2024/03/29 10:32:57;;;;;;;2.20;1.63;;;14.80;51.30;;;;;;5049273;28;20274;-65
2024/03/29 10:35:24;;;;;;;1.43;1.33;;;14.80;51.90;;;;;;5041480;28;20788;-65
2024/03/29 10:37:52;;;;;;;2.40;1.27;;;14.80;50.70;;;;;;5051887;28;20718;-65
2024/03/29 10:40:20;;;;;;;2.43;1.57;;;14.90;50.80;;;;;;5045781;28;20452;-64
2024/03/29 10:42:48;;;;;;;2.57;1.30;;;15.00;50.00;;;;;;5047262;28;20449;-64
2024/03/29 10:45:15;;;;;;;1.63;1.30;;;15.10;50.30;;;;;;5050267;28;21054;-65
2024/03/29 10:47:44;;;;;;;1.40;1.30;;;15.10;50.20;;;;;;5045272;28;20460;-65
2024/03/29 10:50:12;;;;;;;5.63;1.70;;;15.20;50.70;;;;;;5052296;28;20426;-65
2024/03/29 10:52:40;;;;;;;1.20;1.10;;;15.40;51.70;;;;;;5029400;28;20433;-64
2024/03/29 10:55:08;;;;;;;3.23;2.17;;;15.70;51.20;;;;;;5043832;28;20418;-63
2024/03/29 10:57:36;;;;;;;1.73;1.60;;;15.90;50.40;;;;;;5044643;28;20781;-65
2024/03/29 11:00:18;;;;;;;0.80;0.80;;;16.00;49.60;;;;;;5043872;28;20445;-64
2024/03/29 11:03:03;;;;;;;1.53;1.10;;;16.20;46.50;;;;;;5025648;28;20429;-64
2024/03/29 11:05:32;;;;;;;1.70;1.17;;;16.60;44.30;;;;;;5044198;28;20453;-66
2024/03/29 11:07:58;;;;;;;1.80;0.90;;;16.90;43.00;;;;;;5045192;28;20429;-64
2024/03/29 11:10:30;;;;;;;1.13;0.90;;;17.00;42.40;;;;;;5040279;28;20437;-64
2024/03/29 11:13:03;;;;;;;1.00;0.90;;;17.00;41.40;;;;;;5047266;28;20939;-63
2024/03/29 11:15:30;;;;;;;2.57;0.80;;;17.00;41.10;;;;;;5048779;28;20432;-64
2024/03/29 11:17:57;;;;;;;1.80;0.80;;;17.00;41.30;;;;;;5044972;28;20418;-62
2024/03/29 11:21:01;;;;;;;2.93;1.00;;;17.00;42.20;;;;;;5042309;28;20419;-64
2024/03/29 11:23:23;;;;;;;0.80;0.80;;;17.00;41.70;;;;;;5032255;28;20418;-64
2024/03/29 11:25:51;;;;;;;1.27;1.10;;;17.00;41.50;;;;;;5050995;28;20432;-63
2024/03/29 11:28:26;;;;;;;1.50;0.97;;;17.10;42.40;;;;;;5027159;28;20483;-63
2024/03/29 11:30:53;;;;;;;1.40;1.10;;;17.20;42.40;;;;;;5042546;28;20413;-65
2024/03/29 11:33:36;;;;;;;2.60;1.50;;;17.40;42.60;;;;;;5046829;28;20848;-63
2024/03/29 11:36:23;;;;;;;3.40;1.33;;;17.50;41.90;;;;;;5045313;28;20413;-63
2024/03/29 11:38:53;;;;;;;2.87;1.53;;;17.80;40.90;;;;;;5029784;28;20995;-64
2024/03/29 11:41:23;;;;;;;2.00;1.03;;;17.90;41.20;;;;;;5051227;28;20776;-63
2024/03/29 11:43:53;;;;;;;3.23;1.00;;;17.90;40.60;;;;;;5031825;28;21035;-64
2024/03/29 11:46:20;;;;;;;0.83;0.80;;;18.00;39.90;;;;;;5042367;28;20513;-64
2024/03/29 11:48:48;;;;;;;1.07;0.80;;;18.10;40.10;;;;;;5043775;28;20444;-64
2024/03/29 11:51:14;;;;;;;1.83;0.80;;;18.20;39.70;;;;;;5047975;28;20501;-64
2024/03/29 11:53:41;;;;;;;1.00;0.87;;;18.20;38.70;;;;;;5045332;28;20463;-64
2024/03/29 11:56:07;;;;;;;1.43;1.00;;;18.10;39.60;;;;;;5046794;28;20509;-66
2024/03/29 11:58:34;;;;;;;8.13;1.30;;;18.00;39.80;;;;;;5044751;28;20520;-63
2024/03/29 12:01:01;;;;;;;1.10;1.00;;;17.90;40.40;;;;;;5043904;28;20179;-64
2024/03/29 12:03:28;;;;;;;1.80;1.13;;;17.80;40.30;;;;;;5047101;28;20469;-64
2024/03/29 12:05:58;;;;;;;1.93;1.00;;;17.70;40.80;;;;;;5048899;28;20434;-64
2024/03/29 12:08:30;;;;;;;2.27;1.20;;;17.80;41.00;;;;;;5037557;28;20489;-64
2024/03/29 12:11:01;;;;;;;0.77;0.77;;;18.00;41.00;;;;;;5042767;28;20871;-64
2024/03/29 12:13:27;;;;;;;0.90;0.90;;;18.10;40.30;;;;;;5027440;28;20421;-64
2024/03/29 12:15:53;;;;;;;0.80;0.80;;;18.10;40.60;;;;;;5043232;28;20507;-62
2024/03/29 12:18:23;;;;;;;1.20;1.10;;;18.30;40.80;;;;;;5047892;28;20520;-64
2024/03/29 12:20:50;;;;;;;1.10;0.80;;;18.60;41.10;;;;;;5042109;28;21034;-63
2024/03/29 12:23:17;;;;;;;0.80;0.80;;;18.80;39.30;;;;;;5042055;28;20434;-64
2024/03/29 12:25:43;;;;;;;1.97;0.90;;;19.10;39.20;;;;;;5048292;28;20560;-65
2024/03/29 12:28:16;;;;;;;2.30;0.80;;;19.20;39.00;;;;;;5043008;28;20964;-64
2024/03/29 12:30:45;;;;;;;1.23;0.90;;;19.30;38.60;;;;;;5025592;28;20236;-64
2024/03/29 12:33:19;;;;;;;0.70;0.70;;;19.30;37.90;;;;;;5039750;28;20414;-63
2024/03/29 12:35:49;;;;;;;0.60;0.60;;;19.10;37.30;;;;;;5045344;28;20441;-66
2024/03/29 12:38:17;;;;;;;0.70;0.67;;;19.20;37.20;;;;;;5046284;28;20429;-66
2024/03/29 12:40:44;;;;;;;0.80;0.80;;;19.20;37.10;;;;;;5047075;28;20449;-64
2024/03/29 12:43:11;;;;;;;0.63;0.60;;;19.40;37.00;;;;;;5036583;28;20451;-65
2024/03/29 12:45:39;;;;;;;1.00;0.70;;;19.60;37.90;;;;;;5046533;28;20490;-65
2024/03/29 12:48:10;;;;;;;0.90;0.80;;;19.80;37.70;;;;;;5043547;28;20848;-64
2024/03/29 12:50:35;;;;;;;1.07;0.77;;;19.90;37.10;;;;;;5044367;28;20937;-66
2024/03/29 12:53:06;;;;;;;0.90;0.63;;;20.20;36.10;;;;;;5040653;28;20410;-63
2024/03/29 12:55:35;;;;;;;1.20;0.83;;;20.40;37.10;;;;;;5047111;28;20186;-64
2024/03/29 12:58:04;;;;;;;1.20;0.70;;;20.60;36.20;;;;;;5046025;28;20426;-64
2024/03/29 13:00:30;;;;;;;0.80;0.80;;;20.60;36.00;;;;;;5041053;28;20419;-65